Time;durP1;ratioP1;P1;durP2;ratioP2;P2;SDS_P1;SDS_P2;PMS_P1;PMS_P2;Temp;Humidity;BMP_temperature;BMP_pressure;BME280_temperature;BME280_humidity;BME280_pressure;Samples;Min_cycle;Max_cycle;Signal;HPM_P1;HPM_P2
2021/11/21 00:01:06;;;;;;;17.70;10.80;;;9.50;83.90;;;;;;5017918;28;20022;-74
2021/11/21 00:03:32;;;;;;;19.15;11.02;;;9.50;83.70;;;;;;4996962;28;20038;-74
2021/11/21 00:05:58;;;;;;;19.45;10.85;;;9.50;83.90;;;;;;5013267;28;20050;-73
2021/11/21 00:08:23;;;;;;;17.90;9.77;;;9.50;83.90;;;;;;5015131;28;20029;-74
2021/11/21 00:10:50;;;;;;;18.00;10.38;;;9.50;83.80;;;;;;5013291;28;20029;-75
2021/11/21 00:13:16;;;;;;;19.10;10.30;;;9.50;84.10;;;;;;5013261;28;20124;-73
2021/11/21 00:15:42;;;;;;;18.48;10.57;;;9.60;84.10;;;;;;5012969;28;20026;-74
2021/11/21 00:18:09;;;;;;;17.20;10.63;;;9.60;84.00;;;;;;5011925;28;20095;-74
2021/11/21 00:20:36;;;;;;;17.52;10.13;;;9.60;83.80;;;;;;5014744;28;20028;-74
2021/11/21 00:23:01;;;;;;;17.80;10.23;;;9.60;83.60;;;;;;5012508;28;20033;-74
2021/11/21 00:25:28;;;;;;;20.13;10.77;;;9.50;83.60;;;;;;5012829;28;20034;-74
2021/11/21 00:27:53;;;;;;;19.02;10.32;;;9.50;83.90;;;;;;4996103;28;20064;-74
2021/11/21 00:30:20;;;;;;;22.15;11.32;;;9.50;83.80;;;;;;5011282;28;20541;-74
2021/11/21 00:32:45;;;;;;;19.27;11.13;;;9.60;84.10;;;;;;5014175;28;20034;-74
2021/11/21 00:35:11;;;;;;;19.95;10.32;;;9.60;84.00;;;;;;5013522;28;20066;-72
2021/11/21 00:37:38;;;;;;;17.77;10.35;;;9.50;84.10;;;;;;5012707;28;20029;-74
2021/11/21 00:40:05;;;;;;;19.10;9.88;;;9.60;84.30;;;;;;5012701;28;20482;-74
2021/11/21 00:42:31;;;;;;;16.55;9.98;;;9.50;84.50;;;;;;5012585;28;20061;-74
2021/11/21 00:44:57;;;;;;;20.23;11.50;;;9.60;84.80;;;;;;4999562;28;20062;-74
2021/11/21 00:47:22;;;;;;;20.35;11.48;;;9.60;84.60;;;;;;5012899;28;20371;-74
2021/11/21 00:49:48;;;;;;;17.75;10.30;;;9.60;84.80;;;;;;4997966;28;20504;-74
2021/11/21 00:52:14;;;;;;;17.05;10.27;;;9.60;84.60;;;;;;5012142;28;20034;-74
2021/11/21 00:54:53;;;;;;;16.95;10.18;;;9.60;84.80;;;;;;5012719;28;20421;-74
2021/11/21 00:57:19;;;;;;;18.52;10.90;;;9.50;84.70;;;;;;4998266;28;20026;-73
2021/11/21 00:59:45;;;;;;;19.17;10.70;;;9.50;84.70;;;;;;5013879;28;20026;-73
2021/11/21 01:02:12;;;;;;;16.70;10.07;;;9.50;84.80;;;;;;5017264;28;20044;-73
2021/11/21 01:04:41;;;;;;;16.35;9.38;;;9.60;85.10;;;;;;5011327;28;20109;-73
2021/11/21 01:07:07;;;;;;;16.95;10.27;;;9.60;85.10;;;;;;5011745;28;20052;-74
2021/11/21 01:09:33;;;;;;;18.45;10.55;;;9.60;84.90;;;;;;5010698;28;20026;-73
2021/11/21 01:12:00;;;;;;;15.93;9.63;;;9.60;85.00;;;;;;5012335;28;20034;-73
2021/11/21 01:14:28;;;;;;;16.85;9.65;;;9.60;84.90;;;;;;5013230;28;20065;-73
2021/11/21 01:16:55;;;;;;;18.35;9.82;;;9.60;85.20;;;;;;5008765;28;20022;-73
2021/11/21 01:19:21;;;;;;;15.32;9.18;;;9.60;85.00;;;;;;5012044;28;20033;-73
2021/11/21 01:21:47;;;;;;;16.65;9.50;;;9.60;85.00;;;;;;5011809;28;20026;-73
2021/11/21 01:24:13;;;;;;;17.23;10.23;;;9.60;84.90;;;;;;4994543;28;20085;-73
2021/11/21 01:26:39;;;;;;;17.00;9.55;;;9.60;84.90;;;;;;4996022;28;20025;-73
2021/11/21 01:29:05;;;;;;;15.43;9.25;;;9.60;85.00;;;;;;5009998;28;20394;-73
2021/11/21 01:31:31;;;;;;;16.77;9.25;;;9.60;85.00;;;;;;5010334;28;20038;-74
2021/11/21 01:33:56;;;;;;;16.50;10.15;;;9.60;85.30;;;;;;5011609;28;20137;-73
2021/11/21 01:36:22;;;;;;;16.92;10.38;;;9.60;84.70;;;;;;5009691;28;20030;-73
2021/11/21 01:38:48;;;;;;;20.05;11.07;;;9.60;85.00;;;;;;5012342;28;20014;-73
2021/11/21 01:41:14;;;;;;;18.15;10.63;;;9.60;85.10;;;;;;5012696;28;20037;-74
2021/11/21 01:43:41;;;;;;;19.15;10.63;;;9.60;85.50;;;;;;4995037;28;20037;-73
2021/11/21 01:46:07;;;;;;;15.50;9.82;;;9.60;85.40;;;;;;5011632;28;20044;-74
2021/11/21 01:48:33;;;;;;;18.23;10.82;;;9.60;85.20;;;;;;5013565;28;20022;-73
2021/11/21 01:51:04;;;;;;;17.40;9.68;;;9.60;86.10;;;;;;5011100;28;20049;-73
2021/11/21 01:53:30;;;;;;;15.98;9.13;;;9.60;85.00;;;;;;4995841;28;20025;-73
2021/11/21 01:55:57;;;;;;;18.58;10.45;;;9.60;84.90;;;;;;5011270;28;20105;-74
2021/11/21 01:58:23;;;;;;;16.80;9.82;;;9.60;85.10;;;;;;5011262;28;20053;-74
2021/11/21 02:00:49;;;;;;;20.40;10.57;;;9.50;85.40;;;;;;5015507;28;20111;-74
2021/11/21 02:03:17;;;;;;;18.27;10.93;;;9.50;85.20;;;;;;5011241;28;20046;-73
2021/11/21 02:05:44;;;;;;;17.70;9.27;;;9.50;85.30;;;;;;5012276;28;20038;-73
2021/11/21 02:08:11;;;;;;;18.48;10.73;;;9.50;85.30;;;;;;5011558;28;20112;-73
2021/11/21 02:10:38;;;;;;;19.05;10.57;;;9.50;85.50;;;;;;5010565;28;20021;-73
2021/11/21 02:13:05;;;;;;;19.10;10.32;;;9.60;85.50;;;;;;5011079;28;20026;-73
2021/11/21 02:15:32;;;;;;;16.63;9.23;;;9.60;85.60;;;;;;5010838;28;20020;-73
2021/11/21 02:17:58;;;;;;;18.80;11.10;;;9.60;85.60;;;;;;5010482;28;20030;-73
2021/11/21 02:20:33;;;;;;;19.30;10.65;;;9.60;85.50;;;;;;4990398;28;20030;-73
2021/11/21 02:23:01;;;;;;;17.45;9.32;;;9.60;85.50;;;;;;5007965;28;20066;-73
2021/11/21 02:25:26;;;;;;;18.13;10.05;;;9.60;85.50;;;;;;5010995;28;20105;-73
2021/11/21 02:27:52;;;;;;;21.77;10.82;;;9.60;85.50;;;;;;5009154;28;20531;-73
2021/11/21 02:30:18;;;;;;;18.75;10.48;;;9.60;85.50;;;;;;5010868;28;20029;-73
2021/11/21 02:32:49;;;;;;;15.80;9.10;;;9.70;85.90;;;;;;5011245;28;20502;-72
2021/11/21 02:35:16;;;;;;;17.73;10.10;;;9.70;85.90;;;;;;5011728;28;20479;-72
2021/11/21 02:37:42;;;;;;;17.40;9.85;;;9.70;85.60;;;;;;5010729;28;20034;-74
2021/11/21 02:40:10;;;;;;;15.45;8.73;;;9.70;85.40;;;;;;5010597;28;20029;-74
2021/11/21 02:42:36;;;;;;;18.50;10.40;;;9.70;85.50;;;;;;4993618;28;20041;-72
2021/11/21 02:45:04;;;;;;;17.98;9.75;;;9.60;85.30;;;;;;5009858;28;20484;-73
2021/11/21 02:47:34;;;;;;;18.52;9.55;;;9.60;85.50;;;;;;5011359;28;20022;-72
2021/11/21 02:50:02;;;;;;;18.70;10.88;;;9.60;85.70;;;;;;5003191;28;20068;-73
2021/11/21 02:52:28;;;;;;;17.83;10.38;;;9.60;85.90;;;;;;5003924;28;20084;-74
2021/11/21 02:54:56;;;;;;;18.02;10.15;;;9.70;86.20;;;;;;5001884;28;20510;-73
2021/11/21 02:57:22;;;;;;;17.48;9.35;;;9.70;86.40;;;;;;5010366;28;20033;-73
2021/11/21 02:59:49;;;;;;;17.40;9.93;;;9.70;86.10;;;;;;5011208;28;20510;-73
2021/11/21 03:02:18;;;;;;;16.58;9.98;;;9.70;86.00;;;;;;5011071;28;20129;-74
2021/11/21 03:04:47;;;;;;;19.85;10.52;;;9.70;86.00;;;;;;5010163;28;20033;-74
2021/11/21 03:07:13;;;;;;;16.23;9.75;;;9.70;86.20;;;;;;5009848;28;20100;-74
2021/11/21 03:09:39;;;;;;;17.95;10.13;;;9.70;86.00;;;;;;5010477;28;20057;-74
2021/11/21 03:12:06;;;;;;;14.35;8.40;;;9.70;86.00;;;;;;5010182;28;20031;-73
2021/11/21 03:14:31;;;;;;;13.77;8.45;;;9.70;86.00;;;;;;5012040;28;20026;-74
2021/11/21 03:16:57;;;;;;;15.95;9.40;;;9.70;85.90;;;;;;5008825;28;20060;-74
2021/11/21 03:19:23;;;;;;;17.17;9.43;;;9.70;86.10;;;;;;5010038;28;20014;-73
2021/11/21 03:21:49;;;;;;;15.32;9.05;;;9.70;86.20;;;;;;5009834;28;20508;-74
2021/11/21 03:24:14;;;;;;;14.05;8.20;;;9.70;86.20;;;;;;5010056;28;20499;-74
2021/11/21 03:26:40;;;;;;;15.77;8.43;;;9.60;86.30;;;;;;5011583;28;20041;-73
2021/11/21 03:29:06;;;;;;;13.63;8.27;;;9.60;86.30;;;;;;5010409;28;20026;-74
2021/11/21 03:31:33;;;;;;;15.52;8.32;;;9.60;86.30;;;;;;5009489;28;20038;-74
2021/11/21 03:34:00;;;;;;;15.80;9.07;;;9.60;86.50;;;;;;5009785;28;20084;-74
2021/11/21 03:36:27;;;;;;;13.50;8.50;;;9.60;86.30;;;;;;5010238;28;20014;-74
2021/11/21 03:38:53;;;;;;;13.65;8.60;;;9.50;86.40;;;;;;5010378;28;20068;-74
2021/11/21 03:41:19;;;;;;;14.95;8.80;;;9.50;86.50;;;;;;5009742;28;20026;-74
2021/11/21 03:43:44;;;;;;;13.80;8.32;;;9.60;86.90;;;;;;5009819;28;20119;-74
2021/11/21 03:46:10;;;;;;;15.10;8.50;;;9.60;86.30;;;;;;5009340;28;20022;-74
2021/11/21 03:48:35;;;;;;;14.27;8.90;;;9.50;86.50;;;;;;5011921;28;20105;-74
2021/11/21 03:51:01;;;;;;;14.93;8.90;;;9.50;86.60;;;;;;5010126;28;20026;-73
2021/11/21 03:53:27;;;;;;;15.05;9.35;;;9.60;86.90;;;;;;5011848;28;20034;-74
2021/11/21 03:55:52;;;;;;;12.98;8.20;;;9.60;86.70;;;;;;5009670;28;20018;-74
2021/11/21 03:58:18;;;;;;;13.38;8.60;;;9.60;86.60;;;;;;5009402;28;20034;-74
2021/11/21 04:00:46;;;;;;;13.27;8.13;;;9.50;86.50;;;;;;5009147;28;20018;-73
2021/11/21 04:03:17;;;;;;;14.98;8.98;;;9.50;86.90;;;;;;5009701;28;20030;-73
2021/11/21 04:05:43;;;;;;;15.15;8.82;;;9.50;86.90;;;;;;5010635;28;20510;-73
2021/11/21 04:08:09;;;;;;;14.05;8.30;;;9.50;86.90;;;;;;5008738;28;20026;-73
2021/11/21 04:10:35;;;;;;;15.77;9.30;;;9.60;87.00;;;;;;5009389;28;20578;-73
2021/11/21 04:13:04;;;;;;;15.60;9.52;;;9.60;86.90;;;;;;5007888;28;20046;-73
2021/11/21 04:15:30;;;;;;;14.75;8.82;;;9.50;86.90;;;;;;5008970;28;20053;-72
2021/11/21 04:17:55;;;;;;;16.00;9.80;;;9.50;86.60;;;;;;5009634;28;20026;-74
2021/11/21 04:20:21;;;;;;;14.50;8.90;;;9.50;86.70;;;;;;5011348;28;20033;-73
2021/11/21 04:22:47;;;;;;;18.70;11.23;;;9.40;86.80;;;;;;5009242;28;20038;-73
2021/11/21 04:25:13;;;;;;;15.63;9.35;;;9.50;87.30;;;;;;5009522;28;20127;-73
2021/11/21 04:27:39;;;;;;;15.13;8.88;;;9.50;87.10;;;;;;4992812;28;20037;-73
2021/11/21 04:30:07;;;;;;;12.88;8.23;;;9.50;86.90;;;;;;5009058;28;20054;-73
2021/11/21 04:32:33;;;;;;;14.88;8.95;;;9.50;86.90;;;;;;5012155;28;20022;-73
2021/11/21 04:34:59;;;;;;;15.07;9.00;;;9.50;87.50;;;;;;5012441;28;20060;-72
2021/11/21 04:37:25;;;;;;;13.93;8.40;;;9.50;87.30;;;;;;5012820;28;20030;-73
2021/11/21 04:39:51;;;;;;;14.63;8.65;;;9.60;87.40;;;;;;5012524;28;20096;-72
2021/11/21 04:42:16;;;;;;;13.73;8.57;;;9.60;86.90;;;;;;5012815;28;20054;-73
2021/11/21 04:44:43;;;;;;;15.60;8.63;;;9.60;87.30;;;;;;5013741;28;20026;-72
2021/11/21 04:47:12;;;;;;;13.70;8.50;;;9.60;87.40;;;;;;5011574;28;20026;-73
2021/11/21 04:49:38;;;;;;;13.52;8.27;;;9.60;87.20;;;;;;5014917;28;20520;-72
2021/11/21 04:52:04;;;;;;;14.32;9.07;;;9.60;86.90;;;;;;5012460;28;20053;-73
2021/11/21 04:54:30;;;;;;;13.50;8.63;;;9.50;87.30;;;;;;5012606;28;20517;-74
2021/11/21 04:56:55;;;;;;;14.25;8.75;;;9.60;87.60;;;;;;5012517;28;20030;-73
2021/11/21 04:59:21;;;;;;;15.18;9.38;;;9.60;87.40;;;;;;5013932;28;20022;-74
2021/11/21 05:01:48;;;;;;;14.15;8.57;;;9.60;87.50;;;;;;5012443;28;20033;-73
2021/11/21 05:04:13;;;;;;;16.55;9.60;;;9.60;87.40;;;;;;5012496;28;20030;-74
2021/11/21 05:06:39;;;;;;;16.30;9.20;;;9.70;87.50;;;;;;5012104;28;20707;-73
2021/11/21 05:09:06;;;;;;;15.63;9.68;;;9.70;87.50;;;;;;4994557;28;20092;-74
2021/11/21 05:11:32;;;;;;;17.65;9.98;;;9.70;87.50;;;;;;5014063;28;20029;-74
2021/11/21 05:13:59;;;;;;;17.05;9.98;;;9.70;87.10;;;;;;5011792;28;20026;-74
2021/11/21 05:16:25;;;;;;;14.35;8.45;;;9.70;87.40;;;;;;5012074;28;20026;-74
2021/11/21 05:18:50;;;;;;;13.40;8.48;;;9.60;87.00;;;;;;5010273;28;20018;-73
2021/11/21 05:21:18;;;;;;;15.40;9.32;;;9.70;87.50;;;;;;5011883;28;20033;-73
2021/11/21 05:23:44;;;;;;;17.13;10.05;;;9.70;87.70;;;;;;5013245;28;20040;-74
2021/11/21 05:26:09;;;;;;;15.32;8.68;;;9.70;87.70;;;;;;5012632;28;20035;-75
2021/11/21 05:28:35;;;;;;;15.25;8.85;;;9.70;87.80;;;;;;5011605;28;20083;-73
2021/11/21 05:31:00;;;;;;;14.30;8.95;;;9.70;87.80;;;;;;5011644;28;20026;-74
2021/11/21 05:33:26;;;;;;;13.40;8.18;;;9.70;87.70;;;;;;5011626;28;20407;-75
2021/11/21 05:35:52;;;;;;;13.18;8.18;;;9.70;87.60;;;;;;4994833;28;20029;-74
2021/11/21 05:38:18;;;;;;;14.90;8.75;;;9.70;87.60;;;;;;5013157;28;20038;-74
2021/11/21 05:40:43;;;;;;;14.88;8.60;;;9.70;87.70;;;;;;5011736;28;20101;-74
2021/11/21 05:43:09;;;;;;;14.00;8.85;;;9.70;87.90;;;;;;5011034;28;20046;-74
2021/11/21 05:45:35;;;;;;;12.18;7.93;;;9.70;87.90;;;;;;5011062;28;20053;-74
2021/11/21 05:48:00;;;;;;;14.02;8.98;;;9.70;88.00;;;;;;5012000;28;20124;-74
2021/11/21 05:50:26;;;;;;;14.15;8.52;;;9.70;87.90;;;;;;5016414;28;20022;-73
2021/11/21 05:52:53;;;;;;;14.73;9.02;;;9.70;87.70;;;;;;5014550;28;20030;-73
2021/11/21 05:55:20;;;;;;;12.85;8.20;;;9.70;87.90;;;;;;5014560;28;20021;-73
2021/11/21 05:57:47;;;;;;;12.85;8.85;;;9.70;87.90;;;;;;5013893;28;20026;-73
2021/11/21 06:00:19;;;;;;;11.65;7.97;;;9.70;88.10;;;;;;5014488;28;20085;-73
2021/11/21 06:02:45;;;;;;;9.25;6.45;;;9.70;87.90;;;;;;5015502;28;20068;-73
2021/11/21 06:05:11;;;;;;;8.98;6.30;;;9.70;87.70;;;;;;5021122;28;20402;-74
2021/11/21 06:07:37;;;;;;;10.00;6.57;;;9.80;87.80;;;;;;5021109;28;20530;-74
2021/11/21 06:10:05;;;;;;;9.07;6.30;;;9.70;87.80;;;;;;5015508;28;20030;-74
2021/11/21 06:12:31;;;;;;;8.55;5.75;;;9.70;87.80;;;;;;5014455;28;20054;-74
2021/11/21 06:14:57;;;;;;;8.40;5.97;;;9.60;87.60;;;;;;5011879;28;20030;-73
2021/11/21 06:17:23;;;;;;;10.00;6.32;;;9.60;87.70;;;;;;5013052;28;20053;-73
2021/11/21 06:19:48;;;;;;;8.27;6.07;;;9.60;88.00;;;;;;5011188;28;20486;-73
2021/11/21 06:22:15;;;;;;;9.57;6.70;;;9.60;88.20;;;;;;5010719;28;20037;-72
2021/11/21 06:24:41;;;;;;;10.18;7.10;;;9.60;88.50;;;;;;4994103;28;20030;-74
2021/11/21 06:27:06;;;;;;;9.73;6.28;;;9.60;88.50;;;;;;4993524;28;20037;-73
2021/11/21 06:29:32;;;;;;;10.25;6.95;;;9.70;88.50;;;;;;5012663;28;20036;-75
2021/11/21 06:31:58;;;;;;;9.93;7.25;;;9.70;88.40;;;;;;5010837;28;20101;-73
2021/11/21 06:34:24;;;;;;;8.55;6.05;;;9.80;88.60;;;;;;5011120;28;20039;-74
2021/11/21 06:36:51;;;;;;;8.55;6.38;;;9.80;88.40;;;;;;5011077;28;20049;-74
2021/11/21 06:39:18;;;;;;;9.07;6.35;;;9.70;88.40;;;;;;5010740;28;20053;-74
2021/11/21 06:41:44;;;;;;;9.63;6.28;;;9.70;88.40;;;;;;5009255;28;20045;-74
2021/11/21 06:44:10;;;;;;;9.65;6.32;;;9.80;88.70;;;;;;5010434;28;20466;-74
2021/11/21 06:46:35;;;;;;;8.57;5.93;;;9.80;88.50;;;;;;5008659;28;20118;-74
2021/11/21 06:49:02;;;;;;;8.80;6.13;;;9.80;88.30;;;;;;5010726;28;20026;-74
2021/11/21 06:51:28;;;;;;;8.68;5.97;;;9.80;88.50;;;;;;5010571;28;20022;-74
2021/11/21 06:53:54;;;;;;;7.60;5.40;;;9.70;88.30;;;;;;5010690;28;20022;-74
2021/11/21 06:56:20;;;;;;;6.43;4.88;;;9.70;88.50;;;;;;5010185;28;20180;-74
2021/11/21 06:58:47;;;;;;;8.77;5.60;;;9.70;88.30;;;;;;5008793;28;20528;-75
2021/11/21 07:01:13;;;;;;;6.30;4.72;;;9.70;88.60;;;;;;5010356;28;20040;-74
2021/11/21 07:03:39;;;;;;;7.65;4.70;;;9.70;88.30;;;;;;5009015;28;20072;-74
2021/11/21 07:06:05;;;;;;;6.47;4.38;;;9.80;88.50;;;;;;5010209;28;20077;-74
2021/11/21 07:08:31;;;;;;;5.75;4.28;;;9.80;88.30;;;;;;5011702;28;20036;-73
2021/11/21 07:10:56;;;;;;;7.03;4.88;;;9.70;88.30;;;;;;5010227;28;20034;-74
2021/11/21 07:13:22;;;;;;;6.53;4.90;;;9.70;88.30;;;;;;5010293;28;20030;-74
2021/11/21 07:15:48;;;;;;;7.38;5.45;;;9.70;88.10;;;;;;5010213;28;20022;-74
2021/11/21 07:18:14;;;;;;;6.90;4.93;;;9.70;88.20;;;;;;5008350;28;20037;-74
2021/11/21 07:20:40;;;;;;;6.53;4.75;;;9.60;88.10;;;;;;5012072;28;20030;-74
2021/11/21 07:23:05;;;;;;;6.78;4.72;;;9.60;88.00;;;;;;5008205;28;20057;-74
2021/11/21 07:25:32;;;;;;;6.40;4.45;;;9.60;89.30;;;;;;5008622;28;20066;-74
2021/11/21 07:27:58;;;;;;;6.90;5.20;;;9.60;88.30;;;;;;5010023;28;20037;-74
2021/11/21 07:30:24;;;;;;;6.93;4.82;;;9.60;88.70;;;;;;5007853;28;20027;-74
2021/11/21 07:32:51;;;;;;;7.10;4.95;;;9.60;88.60;;;;;;5010667;28;20018;-74
2021/11/21 07:35:19;;;;;;;7.75;5.50;;;9.60;88.60;;;;;;5011375;28;20118;-74
2021/11/21 07:37:45;;;;;;;8.40;5.90;;;9.60;88.80;;;;;;5009655;28;20032;-74
2021/11/21 07:40:13;;;;;;;7.75;5.18;;;9.60;88.70;;;;;;5009795;28;20088;-74
2021/11/21 07:42:42;;;;;;;9.60;5.80;;;9.60;88.60;;;;;;4993188;28;20041;-74
2021/11/21 07:45:10;;;;;;;7.68;5.50;;;9.60;88.80;;;;;;5008290;28;20518;-74
2021/11/21 07:47:36;;;;;;;8.35;5.50;;;9.60;88.70;;;;;;5011653;28;20224;-74
2021/11/21 07:50:02;;;;;;;8.43;5.85;;;9.60;88.70;;;;;;5009861;28;20558;-74
2021/11/21 07:52:28;;;;;;;9.88;5.93;;;9.60;88.90;;;;;;5007331;28;20034;-74
2021/11/21 07:54:54;;;;;;;8.80;5.50;;;9.50;89.20;;;;;;5009633;28;20030;-74
2021/11/21 07:57:19;;;;;;;7.35;5.05;;;9.60;89.10;;;;;;5009736;28;20044;-74
2021/11/21 07:59:45;;;;;;;8.25;5.38;;;9.60;89.30;;;;;;5010699;28;20469;-74
2021/11/21 08:02:11;;;;;;;8.52;5.20;;;9.60;89.30;;;;;;5008998;28;20076;-74
2021/11/21 08:04:37;;;;;;;10.52;5.78;;;9.60;89.10;;;;;;4992950;28;20030;-74
2021/11/21 08:07:03;;;;;;;9.93;6.00;;;9.70;89.50;;;;;;5009931;28;20069;-74
2021/11/21 08:09:29;;;;;;;8.48;5.38;;;9.70;89.10;;;;;;5013172;28;20529;-74
2021/11/21 08:11:55;;;;;;;10.05;5.95;;;9.80;89.40;;;;;;5012976;28;20502;-74
2021/11/21 08:14:20;;;;;;;9.30;5.32;;;9.80;89.30;;;;;;5015324;28;20057;-73
2021/11/21 08:16:47;;;;;;;8.00;4.90;;;9.90;89.20;;;;;;5011643;28;20045;-74
2021/11/21 08:19:13;;;;;;;9.63;5.75;;;10.00;89.20;;;;;;5013231;28;20037;-73
2021/11/21 08:21:39;;;;;;;10.18;5.75;;;10.00;90.00;;;;;;4995434;28;20033;-74
2021/11/21 08:24:07;;;;;;;10.20;6.60;;;10.00;89.20;;;;;;5013158;28;20112;-74
2021/11/21 08:26:34;;;;;;;9.95;5.95;;;10.10;89.30;;;;;;4997359;28;20022;-73
2021/11/21 08:29:00;;;;;;;9.32;5.57;;;10.10;88.70;;;;;;5006858;28;20030;-73
2021/11/21 08:31:25;;;;;;;9.27;6.20;;;10.10;88.90;;;;;;5006458;28;20034;-74
2021/11/21 08:33:51;;;;;;;8.25;5.57;;;10.20;88.70;;;;;;5013047;28;20478;-74
2021/11/21 08:36:16;;;;;;;9.23;5.97;;;10.10;88.70;;;;;;4999150;28;20021;-74
2021/11/21 08:38:42;;;;;;;8.60;5.55;;;10.10;89.10;;;;;;4997376;28;20044;-74
2021/11/21 08:41:08;;;;;;;8.85;5.57;;;10.30;90.00;;;;;;5013617;28;20030;-74
2021/11/21 08:43:33;;;;;;;7.60;5.57;;;10.70;90.00;;;;;;5012781;28;20030;-74
2021/11/21 08:45:59;;;;;;;8.40;5.85;;;11.20;90.50;;;;;;5014496;28;20105;-74
2021/11/21 08:48:25;;;;;;;8.73;5.60;;;11.80;90.20;;;;;;4996621;28;20685;-74
2021/11/21 08:50:51;;;;;;;7.95;5.65;;;12.30;88.40;;;;;;5013606;28;20030;-74
2021/11/21 08:53:17;;;;;;;8.52;6.07;;;12.60;86.20;;;;;;5013142;28;20018;-73
2021/11/21 08:55:42;;;;;;;7.38;5.47;;;12.50;83.70;;;;;;5014373;28;20025;-74
2021/11/21 08:58:09;;;;;;;7.50;5.72;;;12.30;84.10;;;;;;5012860;28;20079;-74
2021/11/21 09:00:35;;;;;;;7.55;5.20;;;12.10;83.80;;;;;;5013114;28;20101;-73
2021/11/21 09:03:00;;;;;;;6.85;5.20;;;11.80;84.60;;;;;;5012154;28;20129;-74
2021/11/21 09:05:26;;;;;;;6.97;4.80;;;11.70;85.20;;;;;;5014201;28;20014;-74
2021/11/21 09:07:52;;;;;;;6.93;4.78;;;11.60;85.90;;;;;;5014339;28;20124;-74
2021/11/21 09:10:19;;;;;;;9.23;6.45;;;11.60;86.40;;;;;;5012471;28;20030;-74
2021/11/21 09:12:46;;;;;;;8.75;6.53;;;11.60;87.10;;;;;;5012201;28;20022;-72
2021/11/21 09:15:14;;;;;;;9.85;6.72;;;11.70;87.00;;;;;;5012415;28;20022;-74
2021/11/21 09:17:45;;;;;;;7.68;5.68;;;11.80;85.70;;;;;;5015730;28;20036;-74
2021/11/21 09:20:11;;;;;;;10.73;6.88;;;11.70;85.70;;;;;;5012596;28;20120;-74
2021/11/21 09:22:38;;;;;;;9.18;5.88;;;11.70;85.20;;;;;;4995410;28;20060;-75
2021/11/21 09:25:05;;;;;;;8.60;6.78;;;11.60;85.80;;;;;;5011541;28;20038;-75
2021/11/21 09:27:31;;;;;;;11.00;7.70;;;11.50;86.50;;;;;;5012394;28;20020;-75
2021/11/21 09:29:57;;;;;;;10.25;6.63;;;11.50;86.40;;;;;;5013968;28;20385;-74
2021/11/21 09:32:23;;;;;;;9.75;7.03;;;11.50;86.90;;;;;;5013019;28;20036;-74
2021/11/21 09:34:48;;;;;;;8.55;5.63;;;11.50;87.30;;;;;;5010302;28;20109;-73
2021/11/21 09:37:15;;;;;;;9.27;6.40;;;11.60;88.00;;;;;;4994378;28;20034;-73
2021/11/21 09:39:40;;;;;;;10.63;6.05;;;11.70;87.60;;;;;;5014226;28;20108;-74
2021/11/21 09:42:06;;;;;;;10.23;6.63;;;11.60;87.30;;;;;;5012913;28;20201;-72
2021/11/21 09:44:32;;;;;;;8.48;5.50;;;11.60;87.40;;;;;;5021647;28;20041;-72
2021/11/21 09:46:58;;;;;;;8.85;5.90;;;11.60;87.50;;;;;;5014223;28;20049;-72
2021/11/21 09:49:26;;;;;;;8.40;5.05;;;11.60;88.00;;;;;;4991668;28;20037;-72
2021/11/21 09:51:52;;;;;;;5.95;4.53;;;11.70;88.00;;;;;;5022986;28;20024;-73
2021/11/21 09:54:18;;;;;;;7.03;4.65;;;11.70;88.00;;;;;;4996421;28;20030;-73
2021/11/21 09:56:45;;;;;;;6.13;4.57;;;11.70;88.00;;;;;;5000374;28;20026;-72
2021/11/21 09:59:12;;;;;;;5.80;3.95;;;11.70;88.00;;;;;;5013589;28;20034;-72
2021/11/21 10:01:43;;;;;;;7.00;4.25;;;11.70;88.00;;;;;;5011270;28;20040;-72
2021/11/21 10:04:12;;;;;;;5.13;3.75;;;11.70;88.10;;;;;;4987731;28;20049;-72
2021/11/21 10:06:48;;;;;;;5.10;3.75;;;11.70;88.10;;;;;;5012297;28;20038;-73
2021/11/21 10:09:18;;;;;;;5.35;4.22;;;11.70;88.40;;;;;;4990203;28;20104;-71
2021/11/21 10:12:01;;;;;;;5.72;4.05;;;11.70;88.20;;;;;;5015935;28;20026;-73
2021/11/21 10:14:27;;;;;;;5.73;3.90;;;11.70;88.00;;;;;;5002573;28;20041;-70
2021/11/21 10:16:53;;;;;;;4.93;3.97;;;11.70;88.10;;;;;;5013783;28;20033;-73
2021/11/21 10:19:18;;;;;;;6.85;3.95;;;11.70;88.40;;;;;;4995312;28;20030;-73
2021/11/21 10:21:56;;;;;;;4.50;3.60;;;11.70;88.60;;;;;;5014694;28;20048;-72
2021/11/21 10:24:28;;;;;;;6.28;4.00;;;11.70;88.50;;;;;;5010426;28;20117;-73
2021/11/21 10:27:09;;;;;;;6.07;3.57;;;11.70;88.70;;;;;;5010956;28;20033;-74
2021/11/21 10:29:41;;;;;;;4.82;3.50;;;11.70;88.50;;;;;;5012999;28;20264;-72
2021/11/21 10:32:17;;;;;;;6.20;3.85;;;11.70;88.90;;;;;;5010148;28;20058;-72
2021/11/21 10:34:54;;;;;;;4.70;3.67;;;11.70;88.50;;;;;;5011947;28;20081;-73
2021/11/21 10:37:28;;;;;;;5.03;3.70;;;11.60;88.70;;;;;;5009667;28;20053;-73
2021/11/21 10:40:12;;;;;;;4.00;2.95;;;11.60;89.10;;;;;;5000955;28;20033;-73
2021/11/21 10:42:40;;;;;;;3.83;2.65;;;11.50;88.90;;;;;;5011039;28;20018;-74
2021/11/21 10:45:08;;;;;;;3.78;2.42;;;11.40;89.70;;;;;;5001642;28;20072;-74
2021/11/21 10:47:42;;;;;;;3.92;2.90;;;11.40;89.20;;;;;;5013648;28;20106;-73
2021/11/21 10:50:10;;;;;;;3.10;2.35;;;11.40;89.40;;;;;;5013637;28;20108;-72
2021/11/21 10:52:45;;;;;;;4.60;2.75;;;11.30;89.40;;;;;;4995248;28;20041;-73
2021/11/21 10:55:15;;;;;;;3.75;2.55;;;11.30;89.30;;;;;;5009622;28;20474;-72
2021/11/21 10:57:41;;;;;;;3.10;2.30;;;11.30;89.50;;;;;;5013562;28;20615;-69
2021/11/21 11:00:19;;;;;;;2.97;1.95;;;11.20;88.80;;;;;;5018718;28;20034;-70
2021/11/21 11:02:45;;;;;;;2.30;1.33;;;11.00;88.50;;;;;;4996715;28;20030;-70
2021/11/21 11:05:19;;;;;;;2.95;1.30;;;11.00;89.10;;;;;;4993656;28;20084;-72
2021/11/21 11:07:47;;;;;;;3.42;1.45;;;11.00;88.90;;;;;;5010156;28;20096;-70
2021/11/21 11:10:33;;;;;;;2.75;1.25;;;10.90;89.20;;;;;;4995608;28;20113;-71
2021/11/21 11:13:04;;;;;;;3.08;0.90;;;11.00;89.50;;;;;;5005536;28;20026;-71
2021/11/21 11:15:37;;;;;;;3.25;0.98;;;10.90;88.60;;;;;;5016026;28;20022;-70
2021/11/21 11:18:03;;;;;;;2.90;0.93;;;10.80;89.40;;;;;;5011213;28;20038;-71
2021/11/21 11:20:29;;;;;;;1.73;0.93;;;10.80;89.10;;;;;;5018991;28;20018;-71
2021/11/21 11:22:58;;;;;;;2.92;1.38;;;10.80;89.60;;;;;;5010621;28;20050;-71
2021/11/21 11:25:27;;;;;;;2.28;1.00;;;10.80;89.20;;;;;;5009834;28;20037;-71
2021/11/21 11:28:07;;;;;;;1.38;0.88;;;10.80;89.20;;;;;;5006509;28;20060;-71
2021/11/21 11:30:35;;;;;;;3.38;1.25;;;10.80;89.40;;;;;;5009990;28;20022;-71
2021/11/21 11:33:37;;;;;;;1.92;0.90;;;10.80;89.50;;;;;;5009406;28;20112;-71
2021/11/21 11:36:17;;;;;;;3.40;0.80;;;10.80;88.80;;;;;;4967392;28;20037;-71
2021/11/21 11:39:08;;;;;;;1.50;0.60;;;10.70;88.40;;;;;;5016117;28;20103;-71
2021/11/21 11:41:35;;;;;;;2.20;0.80;;;10.60;89.80;;;;;;5014768;28;20057;-71
2021/11/21 11:44:04;;;;;;;2.25;0.70;;;10.70;89.20;;;;;;5017653;28;20037;-70
2021/11/21 11:46:35;;;;;;;1.73;0.70;;;10.60;89.00;;;;;;5018129;28;20513;-71
2021/11/21 11:49:09;;;;;;;1.80;0.63;;;10.60;89.30;;;;;;4995548;28;20041;-74
2021/11/21 11:51:38;;;;;;;1.75;0.75;;;10.60;89.30;;;;;;5025325;28;20021;-76
2021/11/21 11:54:15;;;;;;;2.10;0.90;;;10.60;88.80;;;;;;5016337;28;20031;-75
2021/11/21 11:56:59;;;;;;;2.45;0.85;;;10.50;88.70;;;;;;5014491;28;20022;-76
2021/11/21 11:59:41;;;;;;;2.80;0.68;;;10.50;89.50;;;;;;5015554;28;20045;-75
2021/11/21 12:02:08;;;;;;;1.30;0.60;;;10.60;89.30;;;;;;5022596;28;20053;-76
2021/11/21 12:04:33;;;;;;;3.28;0.90;;;10.60;89.30;;;;;;5022845;28;20037;-75
2021/11/21 12:07:20;;;;;;;1.45;0.85;;;10.50;89.00;;;;;;5025048;28;20470;-76
2021/11/21 12:10:09;;;;;;;2.42;0.60;;;10.50;89.80;;;;;;5024112;28;20076;-74
2021/11/21 12:13:05;;;;;;;2.10;0.60;;;10.50;89.00;;;;;;4998473;28;20083;-74
2021/11/21 12:15:51;;;;;;;1.40;0.60;;;10.50;89.20;;;;;;5024241;28;20160;-74
2021/11/21 12:18:19;;;;;;;1.42;0.50;;;10.40;88.90;;;;;;5002273;28;20029;-75
2021/11/21 12:20:58;;;;;;;3.85;0.60;;;10.50;89.30;;;;;;5009120;28;20026;-73
2021/11/21 12:23:42;;;;;;;1.40;0.63;;;10.40;89.50;;;;;;4999074;28;20042;-74
2021/11/21 12:26:26;;;;;;;;;;;10.50;89.30;;;;;;5022447;28;20084;-75
2021/11/21 12:28:56;;;;;;;;;;;10.50;88.90;;;;;;5004683;28;19909;-75
2021/11/21 12:31:40;;;;;;;2.60;0.50;;;10.50;88.90;;;;;;5008284;28;20112;-75
2021/11/21 12:34:35;;;;;;;2.88;0.70;;;10.50;89.10;;;;;;5008571;28;20034;-74
2021/11/21 12:37:22;;;;;;;2.35;0.73;;;10.50;89.00;;;;;;5013279;28;20025;-73
2021/11/21 12:39:52;;;;;;;1.83;0.85;;;10.50;89.10;;;;;;5013489;28;20091;-75
2021/11/21 12:42:28;;;;;;;2.58;0.63;;;10.50;89.00;;;;;;5012394;28;20018;-76
2021/11/21 12:45:08;;;;;;;2.53;0.70;;;10.50;89.20;;;;;;5012584;28;20068;-73
2021/11/21 12:47:35;;;;;;;3.55;0.70;;;10.50;89.00;;;;;;5015054;28;20097;-76
2021/11/21 12:50:00;;;;;;;2.22;0.90;;;10.50;89.00;;;;;;4998039;28;20026;-75
2021/11/21 12:52:26;;;;;;;1.45;0.57;;;10.50;88.90;;;;;;5015642;28;20026;-78